Terminal Aerodrome Forecast
Issued by NWS

Home | Current Version | Previous Version | Text Only | Print | Product List | Glossary On
Versions: 1 2 3 4 5 6 7 8 9 10 11 12 13 14 15 16 17 18 19 20 21 22 23 24 25 26 27 28 29 30 31 32 33 34 35 36 37 38 39 40 41
312
FTUS41 KOKX 230838 AAA
TAFTEB
TAF AMD
KTEB 230838Z 2309/2406 06018G26KT 6SM -DZ BR OVC012
     FM231200 05020G32KT 6SM -DZ BR OVC010
     FM231500 06024G42KT 6SM -DZ BR OVC010
     FM232000 06025G44KT 3SM RA BR OVC010
     FM240000 03020G36KT 2SM +RA BR OVC006=

USA.gov is the U.S. government's official web portal to all federal, state and local government web resources and services.